createdAt,value
2018-10-12T00:00:44.376Z,0.00
2018-10-12T00:01:44.392Z,0.00
2018-10-12T00:02:44.354Z,0.00
2018-10-12T00:03:44.344Z,0.00
2018-10-12T00:04:44.332Z,0.00
2018-10-12T00:05:44.322Z,0.00
2018-10-12T00:06:44.310Z,0.00
2018-10-12T00:07:44.314Z,0.00
2018-10-12T00:08:44.292Z,0.00
2018-10-12T00:09:44.278Z,0.00
2018-10-12T00:10:44.308Z,0.00
2018-10-12T00:11:44.256Z,0.00
2018-10-12T00:12:44.246Z,0.00
2018-10-12T00:13:44.233Z,0.00
2018-10-12T00:14:44.223Z,0.00
2018-10-12T00:15:44.212Z,0.00
2018-10-12T00:16:44.216Z,0.00
2018-10-12T00:17:44.205Z,0.00
2018-10-12T00:18:44.193Z,0.00
2018-10-12T00:19:44.167Z,0.00
2018-10-12T00:20:44.174Z,0.00
2018-10-12T00:21:44.147Z,0.00
2018-10-12T00:22:44.153Z,0.00
2018-10-12T00:23:44.138Z,0.00
2018-10-12T00:24:44.117Z,0.00
2018-10-12T00:25:44.103Z,0.00
2018-10-12T00:26:44.092Z,0.00
2018-10-12T00:27:44.082Z,0.00
2018-10-12T00:28:44.084Z,0.00
2018-10-12T00:29:44.059Z,0.00
2018-10-12T00:30:44.049Z,0.00
2018-10-12T00:31:44.038Z,0.00
2018-10-12T00:32:44.026Z,0.00
2018-10-12T00:33:44.036Z,0.00
2018-10-12T00:34:44.005Z,0.00
2018-10-12T00:35:44.030Z,0.00
2018-10-12T00:36:43.982Z,0.00
2018-10-12T00:37:43.972Z,0.00
2018-10-12T00:38:43.961Z,0.00
2018-10-12T00:39:43.952Z,0.00
2018-10-12T00:40:43.939Z,0.00
2018-10-12T00:41:43.942Z,0.00
2018-10-12T00:42:43.917Z,0.00
2018-10-12T00:43:43.906Z,0.00
2018-10-12T00:44:43.911Z,0.00
2018-10-12T00:45:43.900Z,0.00
2018-10-12T00:46:43.874Z,0.00
2018-10-12T00:47:43.863Z,0.00
2018-10-12T00:48:43.851Z,0.00
2018-10-12T00:49:43.870Z,0.00
2018-10-12T00:50:43.844Z,0.00
2018-10-12T00:51:43.833Z,0.00
2018-10-12T00:52:43.807Z,0.00
2018-10-12T00:53:43.796Z,0.00
2018-10-12T00:54:43.789Z,0.00
2018-10-12T00:55:43.774Z,0.00
2018-10-12T00:56:43.778Z,0.00
2018-10-12T00:57:43.767Z,0.00
2018-10-12T00:58:43.741Z,0.00
2018-10-12T00:59:43.731Z,0.00
2018-10-12T01:00:43.724Z,0.00
2018-10-12T01:01:43.742Z,0.00
2018-10-12T01:02:43.697Z,0.00
2018-10-12T01:03:43.688Z,0.00
2018-10-12T01:04:43.676Z,0.00
2018-10-12T01:05:43.664Z,0.00
2018-10-12T01:06:43.748Z,0.00
2018-10-12T01:07:43.657Z,0.00
2018-10-12T01:08:43.631Z,0.00
2018-10-12T01:09:43.620Z,0.00
2018-10-12T01:10:43.636Z,0.00
2018-10-12T01:11:43.600Z,0.00
2018-10-12T01:12:43.590Z,0.00
2018-10-12T01:13:43.577Z,0.00
2018-10-12T01:14:43.567Z,0.00
2018-10-12T01:15:43.561Z,0.00
2018-10-12T01:16:43.575Z,0.00
2018-10-12T01:17:43.540Z,0.00
2018-10-12T01:18:43.523Z,0.00
2018-10-12T01:19:43.512Z,0.00
2018-10-12T01:20:43.501Z,0.00
2018-10-12T01:21:43.490Z,0.00
2018-10-12T01:22:43.495Z,0.00
2018-10-12T01:23:43.474Z,0.00
2018-10-12T01:24:43.456Z,0.00
2018-10-12T01:25:43.446Z,0.00
2018-10-12T01:26:43.435Z,0.00
2018-10-12T01:27:43.440Z,0.00
2018-10-12T01:28:43.414Z,0.00
2018-10-12T01:29:43.402Z,0.00
2018-10-12T01:30:43.392Z,0.00
2018-10-12T01:31:43.395Z,0.00
2018-10-12T01:32:43.370Z,0.00
2018-10-12T01:33:43.358Z,0.00
2018-10-12T01:34:43.349Z,0.00
2018-10-12T01:35:43.351Z,0.00
2018-10-12T01:36:43.327Z,0.00
2018-10-12T01:37:43.316Z,0.00
2018-10-12T01:38:43.307Z,0.00
2018-10-12T01:39:43.295Z,0.00
2018-10-12T01:40:43.315Z,0.00
2018-10-12T01:41:43.273Z,0.00
2018-10-12T01:42:43.263Z,0.00
2018-10-12T01:43:43.255Z,0.00
2018-10-12T01:44:43.241Z,0.00
2018-10-12T01:45:43.233Z,0.00
2018-10-12T01:46:43.229Z,0.00
2018-10-12T01:47:43.209Z,0.00
2018-10-12T01:48:43.198Z,0.00
2018-10-12T01:49:43.187Z,0.00
2018-10-12T01:50:43.176Z,0.00
2018-10-12T01:51:43.176Z,0.00
2018-10-12T01:52:43.156Z,0.00
2018-10-12T01:53:43.145Z,0.00
2018-10-12T01:54:43.152Z,0.00
2018-10-12T01:55:43.127Z,0.00
2018-10-12T01:56:43.129Z,0.00
2018-10-12T01:57:43.139Z,0.00
2018-10-12T01:58:43.092Z,0.00
2018-10-12T01:59:43.081Z,0.00
2018-10-12T02:00:43.070Z,0.00
2018-10-12T02:01:43.059Z,0.00
2018-10-12T02:02:43.051Z,0.00
2018-10-12T02:03:43.054Z,0.00
2018-10-12T02:04:43.028Z,0.00
2018-10-12T02:05:43.015Z,0.00
2018-10-12T02:06:43.008Z,0.00
2018-10-12T02:07:42.997Z,0.00
2018-10-12T02:08:43.011Z,0.00
2018-10-12T02:09:42.973Z,0.00
2018-10-12T02:10:42.963Z,0.00
2018-10-12T02:11:42.954Z,0.00
2018-10-12T02:12:42.941Z,0.00
2018-10-12T02:13:42.934Z,0.00
2018-10-12T02:14:42.936Z,0.00
2018-10-12T02:15:42.910Z,0.00
2018-10-12T02:16:42.900Z,0.00
2018-10-12T02:17:42.895Z,0.00
2018-10-12T02:18:42.915Z,0.00
2018-10-12T02:19:42.867Z,0.00
2018-10-12T02:20:42.859Z,0.00
2018-10-12T02:21:42.846Z,0.00
2018-10-12T02:22:42.836Z,0.00
2018-10-12T02:23:42.828Z,0.00
2018-10-12T02:24:42.847Z,0.00
2018-10-12T02:25:42.804Z,0.00
2018-10-12T02:26:42.793Z,0.00
2018-10-12T02:27:42.783Z,0.00
2018-10-12T02:28:42.772Z,0.00
2018-10-12T02:29:42.761Z,0.00
2018-10-12T02:30:42.761Z,0.00
2018-10-12T02:31:42.756Z,0.00
2018-10-12T02:32:42.737Z,0.00
2018-10-12T02:33:42.719Z,0.00
2018-10-12T02:34:42.707Z,0.00
2018-10-12T02:35:42.715Z,0.00
2018-10-12T02:36:42.687Z,0.00
2018-10-12T02:37:42.674Z,0.00
2018-10-12T02:38:42.713Z,0.00
2018-10-12T02:39:42.654Z,0.00
2018-10-12T02:40:42.670Z,0.00
2018-10-12T02:41:42.631Z,0.00
2018-10-12T02:42:42.621Z,0.00
2018-10-12T02:43:42.612Z,0.00
2018-10-12T02:44:42.601Z,0.00
2018-10-12T02:45:42.588Z,0.00
2018-10-12T02:46:42.590Z,0.00
2018-10-12T02:47:42.589Z,0.00
2018-10-12T02:48:42.556Z,0.00
2018-10-12T02:49:42.545Z,0.00
2018-10-12T02:50:42.535Z,0.00
2018-10-12T02:51:42.568Z,0.00
2018-10-12T02:52:42.513Z,0.00
2018-10-12T02:53:42.503Z,0.00
2018-10-12T02:54:42.494Z,0.00
2018-10-12T02:55:42.481Z,0.00
2018-10-12T02:56:42.470Z,0.00
2018-10-12T02:57:42.473Z,0.00
2018-10-12T02:58:42.463Z,0.00
2018-10-12T02:59:42.440Z,0.00
2018-10-12T03:00:42.428Z,0.00
2018-10-12T03:01:42.417Z,0.00
2018-10-12T03:02:42.406Z,0.00
2018-10-12T03:03:42.406Z,0.00
2018-10-12T03:04:42.385Z,0.00
2018-10-12T03:05:42.375Z,0.00
2018-10-12T03:06:42.364Z,0.00
2018-10-12T03:07:42.357Z,0.00
2018-10-12T03:08:42.381Z,0.00
2018-10-12T03:09:42.331Z,0.00
2018-10-12T03:10:42.322Z,0.00
2018-10-12T03:11:42.310Z,0.00
2018-10-12T03:12:42.312Z,0.00
2018-10-12T03:13:42.291Z,0.00
2018-10-12T03:14:42.323Z,0.00
2018-10-12T03:15:42.271Z,0.00
2018-10-12T03:16:42.258Z,0.00
2018-10-12T03:17:42.251Z,0.00
2018-10-12T03:18:42.239Z,0.00
2018-10-12T03:19:42.228Z,0.00
2018-10-12T03:20:42.245Z,0.00
2018-10-12T03:21:42.207Z,0.00
2018-10-12T03:22:42.196Z,0.00
2018-10-12T03:23:42.185Z,0.00
2018-10-12T03:24:42.175Z,0.00
2018-10-12T03:25:42.165Z,0.00
2018-10-12T03:26:42.168Z,0.00
2018-10-12T03:27:42.143Z,0.00
2018-10-12T03:28:42.133Z,0.00
2018-10-12T03:29:42.136Z,0.00
2018-10-12T03:30:42.114Z,0.00
2018-10-12T03:31:42.101Z,0.00
2018-10-12T03:32:42.091Z,0.00
2018-10-12T03:33:42.079Z,0.00
2018-10-12T03:34:42.083Z,0.00
2018-10-12T03:35:42.058Z,0.00
2018-10-12T03:36:42.048Z,0.00
2018-10-12T03:37:42.038Z,0.00
2018-10-12T03:38:42.039Z,0.00
2018-10-12T03:39:42.031Z,0.00
2018-10-12T03:40:42.020Z,0.00
2018-10-12T03:41:42.001Z,0.00
2018-10-12T03:42:41.995Z,0.00
2018-10-12T03:43:41.977Z,0.00
2018-10-12T03:44:41.975Z,0.00
2018-10-12T03:45:41.951Z,0.00
2018-10-12T03:46:41.941Z,0.00
2018-10-12T03:47:41.929Z,0.00
2018-10-12T03:48:41.918Z,0.00
2018-10-12T03:49:41.917Z,0.00
2018-10-12T03:50:41.896Z,0.00
2018-10-12T03:51:41.937Z,0.00
2018-10-12T03:52:41.880Z,0.00
2018-10-12T03:53:41.867Z,0.00
2018-10-12T03:54:41.852Z,0.00
2018-10-12T03:55:41.843Z,0.00
2018-10-12T03:56:41.832Z,0.00
2018-10-12T03:57:41.837Z,0.00
2018-10-12T03:58:41.814Z,0.00
2018-10-12T03:59:41.840Z,0.00
2018-10-12T04:00:41.793Z,0.00
2018-10-12T04:01:41.778Z,0.00
2018-10-12T04:02:41.800Z,0.00
2018-10-12T04:03:41.758Z,0.00
2018-10-12T04:04:41.750Z,0.00
2018-10-12T04:05:41.750Z,0.00
2018-10-12T04:06:41.740Z,0.00
2018-10-12T04:07:41.716Z,0.00
2018-10-12T04:08:41.706Z,0.00
2018-10-12T04:09:41.709Z,0.00
2018-10-12T04:10:41.683Z,0.00
2018-10-12T04:11:41.688Z,0.00
2018-10-12T04:12:41.745Z,0.00
2018-10-12T04:13:41.655Z,0.00
2018-10-12T04:14:41.641Z,0.00
2018-10-12T04:15:41.632Z,0.00
2018-10-12T04:16:41.656Z,0.00
2018-10-12T04:17:41.608Z,0.00
2018-10-12T04:18:41.600Z,0.00
2018-10-12T04:19:41.588Z,0.00
2018-10-12T04:20:41.579Z,0.00
2018-10-12T04:21:41.569Z,0.00
2018-10-12T04:22:41.566Z,0.00
2018-10-12T04:23:41.557Z,0.00
2018-10-12T04:24:41.534Z,0.00
2018-10-12T04:25:41.524Z,0.00
2018-10-12T04:26:41.513Z,0.00
2018-10-12T04:27:41.539Z,0.00
2018-10-12T04:28:41.493Z,0.00
2018-10-12T04:29:41.483Z,0.00
2018-10-12T04:30:41.472Z,0.00
2018-10-12T04:31:41.461Z,0.00
2018-10-12T04:32:41.451Z,0.00
2018-10-12T04:33:41.477Z,0.00
2018-10-12T04:34:41.432Z,0.00
2018-10-12T04:35:41.421Z,0.00
2018-10-12T04:36:41.408Z,0.00
2018-10-12T04:37:41.399Z,0.00
2018-10-12T04:38:41.388Z,0.00
2018-10-12T04:39:41.392Z,0.00
2018-10-12T04:40:41.366Z,0.00
2018-10-12T04:41:41.354Z,0.00
2018-10-12T04:42:41.345Z,0.00
2018-10-12T04:43:41.333Z,0.00
2018-10-12T04:44:41.340Z,0.00
2018-10-12T04:45:41.340Z,0.00
2018-10-12T04:46:41.301Z,0.00
2018-10-12T04:47:41.291Z,0.00
2018-10-12T04:48:41.284Z,0.00
2018-10-12T04:49:41.269Z,0.00
2018-10-12T04:50:41.281Z,0.00
2018-10-12T04:51:41.276Z,0.00
2018-10-12T04:52:41.236Z,0.00
2018-10-12T04:53:41.280Z,0.00
2018-10-12T04:54:41.214Z,0.00
2018-10-12T04:55:41.204Z,0.00
2018-10-12T04:56:41.195Z,0.00
2018-10-12T04:57:41.200Z,0.00
2018-10-12T04:58:41.169Z,0.00
2018-10-12T04:59:41.185Z,0.00
2018-10-12T05:00:41.223Z,0.00
2018-10-12T05:01:41.140Z,0.00
2018-10-12T05:02:41.126Z,0.00
2018-10-12T05:03:41.115Z,0.00
2018-10-12T05:04:41.103Z,0.00
2018-10-12T05:05:41.109Z,0.00
2018-10-12T05:06:41.082Z,0.00
2018-10-12T05:07:41.131Z,0.00
2018-10-12T05:08:41.061Z,0.00
2018-10-12T05:09:41.048Z,0.00
2018-10-12T05:10:41.040Z,4.00
2018-10-12T05:11:41.030Z,4.00
2018-10-12T05:12:41.030Z,0.00
2018-10-12T05:13:41.005Z,4.00
2018-10-12T05:14:40.993Z,4.00
2018-10-12T05:15:40.990Z,4.00
2018-10-12T05:16:40.975Z,4.00
2018-10-12T05:17:40.988Z,4.00
2018-10-12T05:18:40.954Z,8.00
2018-10-12T05:19:40.938Z,12.00
2018-10-12T05:20:40.929Z,12.00
2018-10-12T05:21:40.918Z,16.00
2018-10-12T05:22:40.905Z,16.00
2018-10-12T05:23:40.933Z,16.00
2018-10-12T05:24:40.885Z,24.00
2018-10-12T05:25:40.874Z,28.00
2018-10-12T05:26:40.869Z,32.00
2018-10-12T05:27:40.852Z,40.00
2018-10-12T05:28:40.840Z,48.00
2018-10-12T05:29:40.845Z,52.00
2018-10-12T05:30:40.818Z,64.00
2018-10-12T05:31:40.809Z,72.00
2018-10-12T05:32:40.796Z,84.00
2018-10-12T05:33:40.823Z,96.00
2018-10-12T05:34:40.776Z,108.00
2018-10-12T05:35:40.769Z,124.00
2018-10-12T05:36:40.757Z,144.00
2018-10-12T05:37:40.748Z,164.00
2018-10-12T05:38:40.732Z,180.00
2018-10-12T05:39:40.753Z,204.00
2018-10-12T05:40:40.710Z,228.00
2018-10-12T05:41:40.699Z,256.00
2018-10-12T05:42:40.697Z,284.00
2018-10-12T05:43:40.829Z,316.00
2018-10-12T05:44:40.667Z,348.00
2018-10-12T05:45:40.669Z,384.00
2018-10-12T05:46:40.659Z,424.00
2018-10-12T05:47:40.634Z,468.00
2018-10-12T05:48:40.689Z,508.00
2018-10-12T05:49:40.612Z,548.00
2018-10-12T05:50:40.645Z,600.00
2018-10-12T05:51:40.594Z,644.00
2018-10-12T05:52:40.588Z,688.00
2018-10-12T05:53:40.567Z,740.00
2018-10-12T05:54:40.557Z,788.00
2018-10-12T05:55:40.575Z,840.00
2018-10-12T05:56:40.566Z,896.00
2018-10-12T05:57:40.524Z,952.00
2018-10-12T05:58:40.516Z,1008.00
2018-10-12T05:59:40.506Z,1068.00
2018-10-12T06:00:40.491Z,1128.00
2018-10-12T06:01:40.484Z,1188.00
2018-10-12T06:02:40.508Z,1248.00
2018-10-12T06:03:40.458Z,1308.00
2018-10-12T06:04:40.450Z,1372.00
2018-10-12T06:05:40.438Z,1432.00
2018-10-12T06:06:40.426Z,1492.00
2018-10-12T06:07:40.415Z,1552.00
2018-10-12T06:08:40.441Z,1612.00
2018-10-12T06:09:40.469Z,1668.00
2018-10-12T06:10:40.382Z,1724.00
2018-10-12T06:11:40.376Z,1788.00
2018-10-12T06:12:40.402Z,1848.00
2018-10-12T06:13:40.348Z,1916.00
2018-10-12T06:14:40.347Z,1992.00
2018-10-12T06:15:40.428Z,2076.00
2018-10-12T06:16:40.316Z,2172.00
2018-10-12T06:17:40.317Z,2240.00
2018-10-12T06:18:40.320Z,2284.00
2018-10-12T06:19:40.284Z,2336.00
2018-10-12T06:20:40.275Z,2396.00
2018-10-12T06:21:40.346Z,2452.00
2018-10-12T06:22:40.250Z,2512.00
2018-10-12T06:23:40.241Z,2572.00
2018-10-12T06:24:40.243Z,2632.00
2018-10-12T06:25:40.218Z,2704.00
2018-10-12T06:26:40.248Z,2776.00
2018-10-12T06:27:40.196Z,2872.00
2018-10-12T06:28:40.212Z,2968.00
2018-10-12T06:29:40.189Z,3056.00
2018-10-12T06:30:40.164Z,3140.00
2018-10-12T06:31:40.152Z,3244.00
2018-10-12T06:32:40.147Z,3384.00
2018-10-12T06:33:40.131Z,3536.00
2018-10-12T06:34:40.130Z,3640.00
2018-10-12T06:35:40.109Z,3692.00
2018-10-12T06:36:40.098Z,3688.00
2018-10-12T06:37:40.089Z,3664.00
2018-10-12T06:38:40.128Z,3732.00
2018-10-12T06:39:40.076Z,3892.00
2018-10-12T06:40:40.104Z,4016.00
2018-10-12T06:41:40.242Z,4032.00
2018-10-12T06:42:40.033Z,3812.00
2018-10-12T06:43:40.021Z,3552.00
2018-10-12T06:44:40.011Z,3412.00
2018-10-12T06:45:39.997Z,3376.00
2018-10-12T06:46:40.082Z,3364.00
2018-10-12T06:47:39.979Z,3304.00
2018-10-12T06:48:39.965Z,3288.00
2018-10-12T06:49:39.954Z,3312.00
2018-10-12T06:50:39.944Z,3360.00
2018-10-12T06:51:39.950Z,3432.00
2018-10-12T06:52:39.921Z,3496.00
2018-10-12T06:53:39.911Z,3564.00
2018-10-12T06:54:39.899Z,3652.00
2018-10-12T06:55:39.888Z,3732.00
2018-10-12T06:56:39.889Z,3816.00
2018-10-12T06:57:39.867Z,3888.00
2018-10-12T06:58:39.856Z,3956.00
2018-10-12T06:59:39.848Z,4032.00
2018-10-12T07:00:39.848Z,4100.00
2018-10-12T07:01:39.823Z,4160.00
2018-10-12T07:02:39.827Z,4204.00
2018-10-12T07:03:40.195Z,4256.00
2018-10-12T07:04:39.793Z,4292.00
2018-10-12T07:05:39.792Z,4316.00
2018-10-12T07:06:39.776Z,4328.00
2018-10-12T07:07:39.760Z,4332.00
2018-10-12T07:08:39.748Z,4336.00
2018-10-12T07:09:39.759Z,4344.00
2018-10-12T07:10:39.727Z,4352.00
2018-10-12T07:11:39.719Z,4368.00
2018-10-12T07:12:39.709Z,4508.00
2018-10-12T07:13:39.719Z,7840.00
2018-10-12T07:14:39.700Z,12884.00
2018-10-12T07:15:39.674Z,13680.00
2018-10-12T07:16:39.667Z,13728.00
2018-10-12T07:17:39.654Z,14520.00
2018-10-12T07:18:39.650Z,15360.00
2018-10-12T07:19:39.738Z,15104.00
2018-10-12T07:20:39.622Z,15680.00
2018-10-12T07:21:39.613Z,16512.00
2018-10-12T07:22:39.607Z,16256.00
2018-10-12T07:23:39.587Z,15968.00
2018-10-12T07:24:39.591Z,17152.00
2018-10-12T07:25:39.566Z,17504.00
2018-10-12T07:26:39.555Z,16928.00
2018-10-12T07:27:39.544Z,17696.00
2018-10-12T07:28:39.534Z,19232.00
2018-10-12T07:29:39.539Z,19904.00
2018-10-12T07:30:39.526Z,19520.00
2018-10-12T07:31:39.555Z,19904.00
2018-10-12T07:32:39.491Z,20800.00
2018-10-12T07:33:39.480Z,21184.00
2018-10-12T07:34:39.469Z,21280.00
2018-10-12T07:35:39.474Z,20832.00
2018-10-12T07:36:39.457Z,20672.00
2018-10-12T07:37:39.491Z,20832.00
2018-10-12T07:38:39.425Z,21728.00
2018-10-12T07:39:39.416Z,22016.00
2018-10-12T07:40:39.411Z,23200.00
2018-10-12T07:41:39.416Z,24352.00
2018-10-12T07:42:39.384Z,24768.00
2018-10-12T07:43:39.371Z,25504.00
2018-10-12T07:44:39.365Z,26208.00
2018-10-12T07:45:39.353Z,26464.00
2018-10-12T07:46:39.340Z,24768.00
2018-10-12T07:47:39.364Z,25088.00
2018-10-12T07:48:39.318Z,27552.00
2018-10-12T07:49:39.306Z,27488.00
2018-10-12T07:50:39.295Z,27168.00
2018-10-12T07:51:39.286Z,27584.00
2018-10-12T07:52:39.276Z,28512.00
2018-10-12T07:53:39.296Z,28384.00
2018-10-12T07:54:39.256Z,27648.00
2018-10-12T07:55:39.244Z,29824.00
2018-10-12T07:56:39.234Z,31648.00
2018-10-12T07:57:39.224Z,32416.00
2018-10-12T07:58:39.217Z,32864.00
2018-10-12T07:59:39.218Z,32288.00
2018-10-12T08:00:39.225Z,31552.00
2018-10-12T08:01:39.183Z,32512.00
2018-10-12T08:02:39.172Z,32832.00
2018-10-12T08:03:39.201Z,32768.00
2018-10-12T08:04:39.289Z,33152.00
2018-10-12T08:05:39.138Z,32800.00
2018-10-12T08:06:39.196Z,33024.00
2018-10-12T08:07:39.116Z,32384.00
2018-10-12T08:08:39.107Z,27936.00
2018-10-12T08:09:39.202Z,28128.00
2018-10-12T08:10:39.082Z,30240.00
2018-10-12T08:11:39.072Z,32512.00
2018-10-12T08:12:39.062Z,33696.00
2018-10-12T08:13:39.214Z,33504.00
2018-10-12T08:14:39.040Z,22720.00
2018-10-12T08:15:39.074Z,26272.00
2018-10-12T08:16:39.020Z,34816.00
2018-10-12T08:17:39.007Z,35936.00
2018-10-12T08:18:38.997Z,36512.00
2018-10-12T08:19:38.986Z,37120.00
2018-10-12T08:20:38.976Z,34048.00
2018-10-12T08:21:38.975Z,33088.00
2018-10-12T08:22:38.955Z,33824.00
2018-10-12T08:23:38.958Z,35680.00
2018-10-12T08:24:38.952Z,35168.00
2018-10-12T08:25:38.924Z,29888.00
2018-10-12T08:26:38.927Z,30624.00
2018-10-12T08:27:38.905Z,34784.00
2018-10-12T08:28:38.892Z,35008.00
2018-10-12T08:29:38.883Z,35488.00
2018-10-12T08:30:38.871Z,39136.00
2018-10-12T08:31:38.919Z,40704.00
2018-10-12T08:32:38.855Z,40512.00
2018-10-12T08:33:38.839Z,41472.00
2018-10-12T08:34:38.830Z,41216.00
2018-10-12T08:35:38.822Z,41472.00
2018-10-12T08:36:38.809Z,40448.00
2018-10-12T08:37:38.814Z,40576.00
2018-10-12T08:38:38.787Z,39072.00
2018-10-12T08:39:38.776Z,40704.00
2018-10-12T08:40:38.766Z,39872.00
2018-10-12T08:41:38.770Z,41280.00
2018-10-12T08:42:38.755Z,40320.00
2018-10-12T08:43:38.734Z,41024.00
2018-10-12T08:44:38.737Z,44096.00
2018-10-12T08:45:38.713Z,44864.00
2018-10-12T08:46:38.706Z,45408.00
2018-10-12T08:47:38.705Z,44224.00
2018-10-12T08:48:38.681Z,44128.00
2018-10-12T08:49:38.671Z,44800.00
2018-10-12T08:50:38.661Z,44448.00
2018-10-12T08:51:38.649Z,46688.00
2018-10-12T08:52:38.653Z,47968.00
2018-10-12T08:53:38.627Z,47392.00
2018-10-12T08:54:38.620Z,47008.00
2018-10-12T08:55:38.670Z,45728.00
2018-10-12T08:56:38.609Z,47168.00
2018-10-12T08:57:38.603Z,48960.00
2018-10-12T08:58:38.576Z,49248.00
2018-10-12T08:59:38.566Z,50816.00
2018-10-12T09:00:38.555Z,50304.00
2018-10-12T09:01:38.543Z,49056.00
2018-10-12T09:02:38.568Z,49760.00
2018-10-12T09:03:38.524Z,49152.00
2018-10-12T09:04:38.514Z,48960.00
2018-10-12T09:05:38.503Z,49856.00
2018-10-12T09:06:38.492Z,50656.00
2018-10-12T09:07:38.481Z,50688.00
2018-10-12T09:08:38.485Z,49376.00
2018-10-12T09:09:38.492Z,50080.00
2018-10-12T09:10:38.450Z,50240.00
2018-10-12T09:11:38.445Z,51552.00
2018-10-12T09:12:38.471Z,53248.00
2018-10-12T09:13:38.420Z,51168.00
2018-10-12T09:14:38.408Z,52640.00
2018-10-12T09:15:38.396Z,53632.00
2018-10-12T09:16:38.386Z,53408.00
2018-10-12T09:17:38.376Z,46400.00
2018-10-12T09:18:38.378Z,51872.00
2018-10-12T09:19:38.354Z,53056.00
2018-10-12T09:20:38.412Z,49920.00
2018-10-12T09:21:38.376Z,51168.00
2018-10-12T09:22:38.323Z,52480.00
2018-10-12T09:23:38.314Z,53888.00
2018-10-12T09:24:38.302Z,53856.00
2018-10-12T09:25:38.303Z,52192.00
2018-10-12T09:26:38.282Z,54304.00
2018-10-12T09:27:38.273Z,54656.00
2018-10-12T09:28:38.260Z,54656.00
2018-10-12T09:29:38.252Z,55872.00
2018-10-12T09:30:38.273Z,52640.00
2018-10-12T09:31:38.230Z,54912.00
2018-10-12T09:32:38.218Z,55936.00
2018-10-12T09:33:38.208Z,53568.00
2018-10-12T09:34:38.197Z,48416.00
2018-10-12T09:35:38.188Z,44704.00
2018-10-12T09:36:38.270Z,45472.00
2018-10-12T09:37:38.165Z,52320.00
2018-10-12T09:38:38.155Z,58752.00
2018-10-12T09:39:38.145Z,61280.00
2018-10-12T09:40:38.134Z,61184.00
2018-10-12T09:41:38.136Z,59232.00
2018-10-12T09:42:38.113Z,58304.00
2018-10-12T09:43:38.102Z,54656.00
2018-10-12T09:44:38.092Z,58304.00
2018-10-12T09:45:38.084Z,58240.00
2018-10-12T09:46:38.088Z,58304.00
2018-10-12T09:47:38.061Z,59072.00
2018-10-12T09:48:38.050Z,59168.00
2018-10-12T09:49:38.040Z,58208.00
2018-10-12T09:50:38.043Z,58496.00
2018-10-12T09:51:38.019Z,58400.00
2018-10-12T09:52:38.009Z,59776.00
2018-10-12T09:53:37.997Z,60352.00
2018-10-12T09:54:37.986Z,60160.00
2018-10-12T09:55:38.006Z,59040.00
2018-10-12T09:56:37.967Z,59008.00
2018-10-12T09:57:37.956Z,58880.00
2018-10-12T09:58:37.949Z,57952.00
2018-10-12T09:59:37.936Z,58464.00
2018-10-12T10:00:37.925Z,56352.00
2018-10-12T10:01:37.933Z,47968.00
2018-10-12T10:02:37.903Z,47232.00
2018-10-12T10:03:37.893Z,51840.00
2018-10-12T10:04:37.883Z,57248.00
2018-10-12T10:05:37.873Z,58912.00
2018-10-12T10:06:37.877Z,59968.00
2018-10-12T10:07:37.988Z,61344.00
2018-10-12T10:08:37.928Z,59712.00
2018-10-12T10:09:37.830Z,55456.00
2018-10-12T10:10:37.823Z,53952.00
2018-10-12T10:11:37.824Z,55456.00
2018-10-12T10:12:37.810Z,54144.00
2018-10-12T10:13:37.797Z,53280.00
2018-10-12T10:14:37.783Z,57568.00
2018-10-12T10:15:37.814Z,57664.00
2018-10-12T10:16:37.761Z,54656.00
2018-10-12T10:17:37.765Z,52736.00
2018-10-12T10:18:37.741Z,53376.00
2018-10-12T10:19:37.728Z,55616.00
2018-10-12T10:20:37.715Z,55776.00
2018-10-12T10:21:37.720Z,53568.00
2018-10-12T10:22:37.830Z,55136.00
2018-10-12T10:23:37.708Z,58656.00
2018-10-12T10:24:37.673Z,58080.00
2018-10-12T10:25:37.665Z,58400.00
2018-10-12T10:26:37.654Z,58112.00
2018-10-12T10:27:37.643Z,50304.00
2018-10-12T10:28:37.645Z,43072.00
2018-10-12T10:29:37.637Z,43936.00
2018-10-12T10:30:37.611Z,48512.00
2018-10-12T10:31:37.602Z,50656.00
2018-10-12T10:32:37.590Z,53376.00
2018-10-12T10:33:37.580Z,55776.00
2018-10-12T10:34:37.584Z,51040.00
2018-10-12T10:35:37.561Z,42720.00
2018-10-12T10:36:37.550Z,38336.00
2018-10-12T10:37:37.540Z,45888.00
2018-10-12T10:38:37.529Z,54304.00
2018-10-12T10:39:37.546Z,59712.00
2018-10-12T10:40:37.508Z,60000.00
2018-10-12T10:41:37.496Z,57408.00
2018-10-12T10:42:37.489Z,55040.00
2018-10-12T10:43:37.478Z,52864.00
2018-10-12T10:44:37.470Z,56640.00
2018-10-12T10:45:37.493Z,57568.00
2018-10-12T10:46:37.445Z,60832.00
2018-10-12T10:47:37.435Z,55136.00
2018-10-12T10:48:37.425Z,56480.00
2018-10-12T10:49:37.415Z,58336.00
2018-10-12T10:50:37.407Z,58144.00
2018-10-12T10:51:37.424Z,54784.00
2018-10-12T10:52:37.383Z,56128.00
2018-10-12T10:53:37.430Z,45696.00
2018-10-12T10:54:37.365Z,41216.00
2018-10-12T10:55:37.352Z,39456.00
2018-10-12T10:56:37.342Z,47776.00
2018-10-12T10:57:37.346Z,47520.00
2018-10-12T10:58:37.322Z,44864.00
2018-10-12T10:59:37.324Z,42208.00
2018-10-12T11:00:37.309Z,39136.00
2018-10-12T11:01:37.288Z,38080.00
2018-10-12T11:02:37.279Z,38432.00
2018-10-12T11:03:37.282Z,37120.00
2018-10-12T11:04:37.257Z,35040.00
2018-10-12T11:05:37.247Z,33056.00
2018-10-12T11:06:37.238Z,32640.00
2018-10-12T11:07:37.240Z,31776.00
2018-10-12T11:08:37.221Z,30272.00
2018-10-12T11:09:37.206Z,29632.00
2018-10-12T11:10:37.209Z,28192.00
2018-10-12T11:11:37.184Z,26208.00
2018-10-12T11:12:37.272Z,25888.00
2018-10-12T11:13:37.178Z,25408.00
2018-10-12T11:14:37.155Z,24672.00
2018-10-12T11:15:37.145Z,23776.00
2018-10-12T11:16:37.134Z,23168.00
2018-10-12T11:17:37.124Z,23264.00
2018-10-12T11:18:37.154Z,22592.00
2018-10-12T11:19:37.169Z,22464.00
2018-10-12T11:20:37.093Z,22432.00
2018-10-12T11:21:37.081Z,22144.00
2018-10-12T11:22:37.112Z,21856.00
2018-10-12T11:23:37.062Z,21888.00
2018-10-12T11:24:37.165Z,21888.00
2018-10-12T11:25:37.040Z,21472.00
2018-10-12T11:26:37.032Z,21536.00
2018-10-12T11:27:37.020Z,21472.00
2018-10-12T11:28:37.010Z,21344.00
2018-10-12T11:29:37.022Z,21312.00
2018-10-12T11:30:36.988Z,21248.00
2018-10-12T11:31:36.981Z,20960.00
2018-10-12T11:32:36.982Z,20928.00
2018-10-12T11:33:36.957Z,20992.00
2018-10-12T11:34:36.951Z,20800.00
2018-10-12T11:35:36.950Z,20960.00
2018-10-12T11:36:36.926Z,20992.00
2018-10-12T11:37:36.921Z,20864.00
2018-10-12T11:38:36.907Z,20928.00
2018-10-12T11:39:36.894Z,21120.00
2018-10-12T11:40:36.897Z,20992.00
2018-10-12T11:41:36.889Z,21088.00
2018-10-12T11:42:36.865Z,21120.00
2018-10-12T11:43:36.853Z,21152.00
2018-10-12T11:44:36.843Z,21088.00
2018-10-12T11:45:36.834Z,21056.00
2018-10-12T11:46:36.838Z,21184.00
2018-10-12T11:47:36.815Z,20832.00
2018-10-12T11:48:36.812Z,21120.00
2018-10-12T11:49:36.794Z,21120.00
2018-10-12T11:50:36.787Z,20960.00
2018-10-12T11:51:36.793Z,20960.00
2018-10-12T11:52:36.759Z,21056.00
2018-10-12T11:53:36.752Z,20992.00
2018-10-12T11:54:36.740Z,21312.00
2018-10-12T11:55:36.729Z,21376.00
2018-10-12T11:56:36.744Z,21280.00
2018-10-12T11:57:36.726Z,21184.00
2018-10-12T11:58:36.699Z,20832.00
2018-10-12T11:59:36.687Z,21088.00
2018-10-12T12:00:36.677Z,21088.00
2018-10-12T12:01:36.667Z,20768.00
2018-10-12T12:02:36.669Z,20608.00
2018-10-12T12:03:36.663Z,20704.00
2018-10-12T12:04:36.637Z,20992.00
2018-10-12T12:05:36.626Z,20992.00
2018-10-12T12:06:36.615Z,20800.00
2018-10-12T12:07:36.607Z,20704.00
2018-10-12T12:08:36.608Z,20544.00
2018-10-12T12:09:36.586Z,20320.00
2018-10-12T12:10:36.605Z,20224.00
2018-10-12T12:11:36.566Z,20352.00
2018-10-12T12:12:36.554Z,20448.00
2018-10-12T12:13:36.608Z,20352.00
2018-10-12T12:14:36.533Z,20160.00
2018-10-12T12:15:36.524Z,20160.00
2018-10-12T12:16:36.526Z,20128.00
2018-10-12T12:17:36.504Z,20128.00
2018-10-12T12:18:36.490Z,20064.00
2018-10-12T12:19:36.481Z,20064.00
2018-10-12T12:20:36.480Z,20000.00
2018-10-12T12:21:36.460Z,20064.00
2018-10-12T12:22:36.450Z,19904.00
2018-10-12T12:23:36.439Z,19744.00
2018-10-12T12:24:36.429Z,19840.00
2018-10-12T12:25:36.449Z,19808.00
2018-10-12T12:26:36.409Z,19872.00